createdAt,value
2023-12-12T00:02:18.702Z,100760.28
2023-12-12T00:04:46.200Z,100765.88
2023-12-12T00:07:13.569Z,100763.47
2023-12-12T00:09:40.969Z,100770.84
2023-12-12T00:12:08.263Z,100769.34
2023-12-12T00:14:35.720Z,100764.72
2023-12-12T00:17:03.531Z,100760.28
2023-12-12T00:19:30.942Z,100765.75
2023-12-12T00:21:58.208Z,100760.47
2023-12-12T00:24:25.567Z,100762.75
2023-12-12T00:26:53.054Z,100765.63
2023-12-12T00:29:20.388Z,100753.91
2023-12-12T00:31:47.779Z,100757.00
2023-12-12T00:34:15.202Z,100756.00
2023-12-12T00:36:42.562Z,100757.59
2023-12-12T00:39:09.876Z,100740.25
2023-12-12T00:41:37.234Z,100757.41
2023-12-12T00:44:04.845Z,100727.69
2023-12-12T00:46:32.244Z,100753.25
2023-12-12T00:48:59.765Z,100750.81
2023-12-12T00:51:27.068Z,100746.59
2023-12-12T00:53:54.435Z,100741.44
2023-12-12T00:56:21.634Z,100732.69
2023-12-12T00:58:48.886Z,100742.00
2023-12-12T01:01:16.326Z,100741.31
2023-12-12T01:03:43.877Z,100731.00
2023-12-12T01:06:11.376Z,100741.22
2023-12-12T01:08:38.580Z,100737.53
2023-12-12T01:11:05.912Z,100736.34
2023-12-12T01:13:33.398Z,100721.69
2023-12-12T01:16:01.021Z,100729.72
2023-12-12T01:18:28.548Z,100716.34
2023-12-12T01:20:55.755Z,100717.13
2023-12-12T01:23:23.275Z,100716.03
2023-12-12T01:25:50.474Z,100708.41
2023-12-12T01:28:17.786Z,100708.00
2023-12-12T01:30:45.063Z,100699.03
2023-12-12T01:33:12.374Z,100699.84
2023-12-12T01:35:39.670Z,100698.38
2023-12-12T01:38:07.169Z,100690.47
2023-12-12T01:40:34.512Z,100702.50
2023-12-12T01:43:08.155Z,100683.13
2023-12-12T01:45:35.507Z,100694.09
2023-12-12T01:48:02.855Z,100695.06
2023-12-12T01:50:30.814Z,100685.34
2023-12-12T01:52:58.134Z,100693.16
2023-12-12T01:55:25.461Z,100692.50
2023-12-12T01:57:53.107Z,100689.03
2023-12-12T02:00:20.334Z,100685.41
2023-12-12T02:02:47.613Z,100675.03
2023-12-12T02:05:15.838Z,100675.28
2023-12-12T02:07:43.218Z,100670.56
2023-12-12T02:10:11.181Z,100661.91
2023-12-12T02:12:38.475Z,100666.13
2023-12-12T02:15:06.253Z,100666.97
2023-12-12T02:17:34.516Z,100665.09
2023-12-12T02:20:02.213Z,100653.56
2023-12-12T02:22:29.905Z,100664.63
2023-12-12T02:24:57.333Z,100647.94
2023-12-12T02:27:24.706Z,100650.63
2023-12-12T02:29:52.049Z,100665.69
2023-12-12T02:32:20.385Z,100665.75
2023-12-12T02:34:47.896Z,100659.16
2023-12-12T02:37:15.151Z,100652.25
2023-12-12T02:39:43.413Z,100661.63
2023-12-12T02:42:10.659Z,100648.75
2023-12-12T02:44:37.893Z,100638.28
2023-12-12T02:47:05.291Z,100646.38
2023-12-12T02:49:32.951Z,100639.63
2023-12-12T02:52:00.381Z,100640.59
2023-12-12T02:54:27.627Z,100638.38
2023-12-12T02:56:55.489Z,100643.19
2023-12-12T02:59:22.683Z,100635.81
2023-12-12T03:01:50.078Z,100640.66
2023-12-12T03:04:17.545Z,100621.50
2023-12-12T03:06:44.854Z,100627.25
2023-12-12T03:09:12.246Z,100628.72
2023-12-12T03:11:39.764Z,100626.97
2023-12-12T03:14:07.012Z,100638.13
2023-12-12T03:16:34.348Z,100631.28
2023-12-12T03:19:02.179Z,100630.09
2023-12-12T03:21:29.679Z,100635.59
2023-12-12T03:23:57.828Z,100637.31
2023-12-12T03:26:25.097Z,100632.50
2023-12-12T03:28:52.289Z,100628.41
2023-12-12T03:31:19.594Z,100623.44
2023-12-12T03:33:46.789Z,100629.69
2023-12-12T03:36:14.753Z,100633.50
2023-12-12T03:38:42.104Z,100643.91
2023-12-12T03:41:09.380Z,100647.72
2023-12-12T03:43:36.588Z,100645.56
2023-12-12T03:46:04.166Z,100647.19
2023-12-12T03:48:31.552Z,100643.78
2023-12-12T03:50:58.924Z,100644.69
2023-12-12T03:53:26.196Z,100639.75
2023-12-12T03:55:53.528Z,100646.00
2023-12-12T03:58:20.709Z,100647.88
2023-12-12T04:00:48.115Z,100648.28
2023-12-12T04:03:15.280Z,100644.91
2023-12-12T04:05:43.404Z,100653.28
2023-12-12T04:08:10.564Z,100658.06
2023-12-12T04:10:38.178Z,100661.47
2023-12-12T04:13:06.024Z,100655.81
2023-12-12T04:15:33.384Z,100655.22
2023-12-12T04:18:26.548Z,100664.09
2023-12-12T04:20:54.016Z,100656.72
2023-12-12T04:23:21.584Z,100657.13
2023-12-12T04:25:48.895Z,100655.63
2023-12-12T04:28:16.197Z,100669.31
2023-12-12T04:30:43.545Z,100666.34
2023-12-12T04:33:10.889Z,100666.38
2023-12-12T04:35:39.603Z,100657.00
2023-12-12T04:38:06.812Z,100657.06
2023-12-12T04:40:34.223Z,100674.56
2023-12-12T04:43:01.519Z,100666.56
2023-12-12T04:45:28.856Z,100665.72
2023-12-12T04:47:56.261Z,100665.81
2023-12-12T04:50:23.583Z,100671.53
2023-12-12T04:52:50.899Z,100674.91
2023-12-12T04:55:18.313Z,100665.16
2023-12-12T04:57:46.447Z,100642.34
2023-12-12T05:00:15.019Z,100635.81
2023-12-12T05:02:43.013Z,100641.94
2023-12-12T05:05:10.569Z,100648.28
2023-12-12T05:07:37.881Z,100651.81
2023-12-12T05:10:05.720Z,100650.56
2023-12-12T15:37:19.890Z,100637.78
2023-12-12T15:39:50.030Z,100637.22
2023-12-12T15:42:17.628Z,100647.22
2023-12-12T15:44:46.081Z,100639.66
2023-12-12T15:47:16.034Z,100638.13
2023-12-12T15:49:47.881Z,100618.06
2023-12-12T15:52:15.803Z,100634.09
2023-12-12T15:54:43.419Z,100636.31
2023-12-12T15:57:11.516Z,100653.91
2023-12-12T15:59:39.179Z,100652.88
2023-12-12T16:02:07.362Z,100654.81
2023-12-12T16:04:35.043Z,100649.28
2023-12-12T16:07:04.286Z,100647.31
2023-12-12T16:09:31.642Z,100663.16
2023-12-12T16:11:59.013Z,100654.44
2023-12-12T16:14:26.755Z,100648.78
2023-12-12T16:16:55.815Z,100650.75
2023-12-12T16:19:27.637Z,100647.34
2023-12-12T16:21:55.087Z,100654.44
2023-12-12T16:24:22.878Z,100654.81
2023-12-12T16:26:50.665Z,100656.13
2023-12-12T16:29:18.625Z,100654.03
2023-12-12T16:31:46.550Z,100661.78
2023-12-12T16:34:14.150Z,100660.03
2023-12-12T16:36:49.779Z,100655.97
2023-12-12T16:39:22.241Z,100651.03
2023-12-12T16:41:49.471Z,100648.44
2023-12-12T16:44:16.834Z,100652.19
2023-12-12T16:46:44.746Z,100647.13
2023-12-12T16:49:12.148Z,100651.47
2023-12-12T16:51:55.667Z,100652.56
2023-12-12T16:54:23.071Z,100648.75
2023-12-12T16:56:52.330Z,100656.09
2023-12-12T16:59:20.083Z,100652.38
2023-12-12T17:01:47.817Z,100668.31
2023-12-12T17:04:15.568Z,100656.09
2023-12-12T17:06:43.093Z,100650.97
2023-12-12T17:09:10.866Z,100657.69
2023-12-12T17:11:38.416Z,100657.75
2023-12-12T17:14:06.120Z,100651.53
2023-12-12T17:16:34.021Z,100647.69
2023-12-12T17:19:01.555Z,100660.84
2023-12-12T17:21:29.148Z,100654.22
2023-12-12T17:23:56.628Z,100647.75
2023-12-12T17:26:24.274Z,100641.56
2023-12-12T17:28:51.771Z,100644.19
2023-12-12T17:31:19.322Z,100642.34
2023-12-12T17:33:46.864Z,100638.03
2023-12-12T17:36:14.190Z,100639.97
